Terminal Aerodrome Forecast
Issued by NWS Cheyenne, WY

Home | Current Version | Previous Version | Text Only | Print | Product List | Glossary On
Versions: 1 2 3 4 5 6 7 8 9 10 11 12 13 14 15 16 17 18 19 20 21 22 23 24 25 26 27 28 29 30 31 32 33
000
FTUS45 KCYS 290500
TAFCYS
TAF
KCYS 290530Z 2906/3006 18004KT P6SM BKN090
     FM290800 18008KT P6SM BKN050
      TEMPO 2910/2914 3SM BR BKN025
     FM291500 36010G20KT P6SM OVC050
     FM291900 01012KT 4SM -SHRA OVC040
     FM300200 07012KT 3SM TSRA BKN025CB OVC040=

USA.gov is the U.S. government's official web portal to all federal, state and local government web resources and services.